createdAt,value
2018-06-29T00:01:14.722Z,3.57
2018-06-29T00:03:42.690Z,3.70
2018-06-29T00:06:10.781Z,3.87
2018-06-29T00:08:38.741Z,3.70
2018-06-29T00:11:06.713Z,3.80
2018-06-29T00:13:34.608Z,3.87
2018-06-29T00:16:02.606Z,3.10
2018-06-29T00:18:30.470Z,4.00
2018-06-29T00:20:58.673Z,3.47
2018-06-29T00:23:34.786Z,3.87
2018-06-29T00:26:03.238Z,3.57
2018-06-29T00:28:31.141Z,3.80
2018-06-29T00:30:59.477Z,3.83
2018-06-29T00:33:27.392Z,3.70
2018-06-29T00:35:55.318Z,4.47
2018-06-29T00:38:23.235Z,3.90
2018-06-29T00:40:54.195Z,3.47
2018-06-29T00:43:22.205Z,3.90
2018-06-29T00:45:50.338Z,3.83
2018-06-29T00:48:21.088Z,4.33
2018-06-29T00:50:49.185Z,3.97
2018-06-29T00:53:17.026Z,3.70
2018-06-29T00:55:44.969Z,3.67
2018-06-29T00:58:12.873Z,3.57
2018-06-29T01:00:40.834Z,4.13
2018-06-29T01:03:08.737Z,3.83
2018-06-29T01:05:36.709Z,3.90
2018-06-29T01:08:04.657Z,4.37
2018-06-29T01:10:32.589Z,4.13
2018-06-29T01:13:00.609Z,4.50
2018-06-29T01:15:28.573Z,4.10
2018-06-29T01:17:56.464Z,4.43
2018-06-29T01:20:24.400Z,3.83
2018-06-29T01:22:52.566Z,3.70
2018-06-29T01:25:20.488Z,3.53
2018-06-29T01:27:48.440Z,3.70
2018-06-29T01:30:16.360Z,3.87
2018-06-29T01:32:44.321Z,4.07
2018-06-29T01:35:12.273Z,3.67
2018-06-29T01:37:40.177Z,3.90
2018-06-29T01:40:08.109Z,4.03
2018-06-29T01:42:35.964Z,3.67
2018-06-29T01:45:04.621Z,3.83
2018-06-29T01:47:35.968Z,3.77
2018-06-29T01:50:03.977Z,3.80
2018-06-29T01:52:31.931Z,3.63
2018-06-29T01:54:59.821Z,3.83
2018-06-29T01:57:27.675Z,3.53
2018-06-29T01:59:55.609Z,3.67
2018-06-29T02:02:23.517Z,3.60
2018-06-29T02:04:51.410Z,3.63
2018-06-29T02:07:19.272Z,3.87
2018-06-29T02:09:47.162Z,3.27
2018-06-29T02:12:15.190Z,3.60
2018-06-29T02:14:43.003Z,3.23
2018-06-29T02:17:10.925Z,3.20
2018-06-29T02:19:38.853Z,3.10
2018-06-29T02:22:06.861Z,2.63
2018-06-29T02:24:34.854Z,2.73
2018-06-29T02:27:02.728Z,2.83
2018-06-29T02:29:30.541Z,2.97
2018-06-29T02:31:58.422Z,2.93
2018-06-29T02:34:26.333Z,2.90
2018-06-29T02:36:54.217Z,3.10
2018-06-29T02:39:22.106Z,2.77
2018-06-29T02:41:50.117Z,3.07
2018-06-29T02:44:17.917Z,2.60
2018-06-29T02:46:45.861Z,2.70
2018-06-29T02:49:13.782Z,2.50
2018-06-29T02:51:41.816Z,2.63
2018-06-29T02:54:09.789Z,2.80
2018-06-29T02:56:37.665Z,2.60
2018-06-29T02:59:05.608Z,2.70
2018-06-29T03:01:33.529Z,2.67
2018-06-29T03:04:01.906Z,2.80
2018-06-29T03:06:29.748Z,2.80
2018-06-29T03:08:57.635Z,2.80
2018-06-29T03:11:25.555Z,2.70
2018-06-29T03:13:53.469Z,2.63
2018-06-29T03:16:21.436Z,2.70
2018-06-29T03:18:49.253Z,2.77
2018-06-29T03:21:17.166Z,3.20
2018-06-29T03:23:45.085Z,2.90
2018-06-29T03:26:13.005Z,2.73
2018-06-29T03:28:40.925Z,2.80
2018-06-29T03:31:08.873Z,2.60
2018-06-29T03:33:36.745Z,3.03
2018-06-29T03:36:04.717Z,3.00
2018-06-29T03:38:32.632Z,3.20
2018-06-29T03:41:00.521Z,2.97
2018-06-29T03:43:28.412Z,2.60
2018-06-29T03:45:56.345Z,3.03
2018-06-29T03:48:24.232Z,2.73
2018-06-29T03:50:52.194Z,2.80
2018-06-29T03:53:20.126Z,2.77
2018-06-29T03:55:47.972Z,3.03
2018-06-29T03:58:15.924Z,2.87
2018-06-29T04:00:43.821Z,3.30
2018-06-29T04:03:11.693Z,3.10
2018-06-29T04:05:39.630Z,2.70
2018-06-29T04:08:07.471Z,3.00
2018-06-29T04:10:35.394Z,2.77
2018-06-29T04:13:03.439Z,2.60
2018-06-29T04:15:31.202Z,2.97
2018-06-29T04:17:59.073Z,3.00
2018-06-29T04:20:27.015Z,2.83
2018-06-29T04:22:55.453Z,3.07
2018-06-29T04:25:23.378Z,2.60
2018-06-29T04:27:51.309Z,3.00
2018-06-29T04:30:19.301Z,2.97
2018-06-29T04:32:47.232Z,2.83
2018-06-29T04:35:15.201Z,3.13
2018-06-29T04:37:42.997Z,2.70
2018-06-29T04:40:10.965Z,2.70
2018-06-29T04:42:38.885Z,2.60
2018-06-29T04:45:06.848Z,2.80
2018-06-29T04:47:34.770Z,2.83
2018-06-29T04:50:02.669Z,2.60
2018-06-29T04:52:30.525Z,2.60
2018-06-29T04:54:58.477Z,2.70
2018-06-29T04:57:26.405Z,3.03
2018-06-29T04:59:54.329Z,2.93
2018-06-29T05:02:22.252Z,2.77
2018-06-29T05:04:50.165Z,3.23
2018-06-29T05:07:18.177Z,2.77
2018-06-29T05:09:46.153Z,2.70
2018-06-29T05:12:14.073Z,2.50
2018-06-29T05:14:41.960Z,2.70
2018-06-29T05:17:09.829Z,2.53
2018-06-29T05:19:37.905Z,3.03
2018-06-29T05:22:05.884Z,2.53
2018-06-29T05:24:33.783Z,3.17
2018-06-29T05:27:01.656Z,2.73
2018-06-29T05:29:29.660Z,2.73
2018-06-29T05:31:57.622Z,3.23
2018-06-29T05:34:25.477Z,2.77
2018-06-29T05:36:53.434Z,3.00
2018-06-29T05:39:21.323Z,2.80
2018-06-29T05:41:49.238Z,2.90
2018-06-29T05:44:17.069Z,2.77
2018-06-29T05:46:44.939Z,2.63
2018-06-29T05:49:12.811Z,2.77
2018-06-29T05:51:40.650Z,2.80
2018-06-29T05:54:08.488Z,2.50
2018-06-29T05:56:36.366Z,2.80
2018-06-29T05:59:04.731Z,2.70
2018-06-29T06:01:32.668Z,2.53
2018-06-29T06:04:00.604Z,2.77
2018-06-29T06:06:28.553Z,2.60
2018-06-29T06:08:56.497Z,2.33
2018-06-29T06:11:24.385Z,2.70
2018-06-29T06:13:52.327Z,3.00
2018-06-29T06:16:20.273Z,2.50
2018-06-29T06:18:48.329Z,2.97
2018-06-29T06:21:16.215Z,2.90
2018-06-29T06:23:44.131Z,2.80
2018-06-29T06:26:12.053Z,2.83
2018-06-29T06:28:39.934Z,2.80
2018-06-29T06:31:07.828Z,3.00
2018-06-29T06:33:35.722Z,2.80
2018-06-29T06:36:03.641Z,3.13
2018-06-29T06:38:31.513Z,2.77
2018-06-29T06:40:59.420Z,3.07
2018-06-29T06:43:27.296Z,2.93
2018-06-29T06:45:55.241Z,3.40
2018-06-29T06:48:23.197Z,2.30
2018-06-29T06:50:51.125Z,2.77
2018-06-29T06:53:18.997Z,2.67
2018-06-29T06:55:46.925Z,2.53
2018-06-29T06:58:14.753Z,3.13
2018-06-29T07:00:42.644Z,3.27
2018-06-29T07:03:10.545Z,3.20
2018-06-29T07:05:38.389Z,2.57
2018-06-29T07:08:06.341Z,2.90
2018-06-29T07:10:34.220Z,2.53
2018-06-29T07:13:02.080Z,2.53
2018-06-29T07:15:29.964Z,2.70
2018-06-29T07:17:57.781Z,2.93
2018-06-29T07:20:25.597Z,2.73
2018-06-29T07:22:53.501Z,2.60
2018-06-29T07:25:21.353Z,2.87
2018-06-29T07:27:49.269Z,2.70
2018-06-29T07:30:17.192Z,2.63
2018-06-29T07:32:45.103Z,2.30
2018-06-29T07:35:12.965Z,2.70
2018-06-29T07:37:40.833Z,2.40
2018-06-29T07:40:08.733Z,2.50
2018-06-29T07:42:36.605Z,2.40
2018-06-29T07:45:04.944Z,2.33
2018-06-29T07:47:32.901Z,2.47
2018-06-29T07:50:00.760Z,2.53
2018-06-29T07:52:28.680Z,2.50
2018-06-29T07:54:56.620Z,2.90
2018-06-29T07:57:24.517Z,2.30
2018-06-29T07:59:52.394Z,2.70
2018-06-29T08:02:20.253Z,2.73
2018-06-29T08:04:52.455Z,2.80
2018-06-29T08:07:21.142Z,3.10
2018-06-29T08:09:49.061Z,2.80
2018-06-29T08:12:17.228Z,2.37
2018-06-29T08:14:45.160Z,2.53
2018-06-29T08:17:12.997Z,2.63
2018-06-29T08:19:40.873Z,2.90
2018-06-29T08:22:08.759Z,2.83
2018-06-29T08:24:53.570Z,2.47
2018-06-29T08:27:21.505Z,2.57
2018-06-29T08:29:49.386Z,2.50
2018-06-29T08:32:17.337Z,2.80
2018-06-29T08:34:45.146Z,2.47
2018-06-29T08:37:13.041Z,2.73
2018-06-29T08:39:40.977Z,2.70
2018-06-29T08:42:08.834Z,2.40
2018-06-29T08:44:36.713Z,2.40
2018-06-29T08:47:10.312Z,2.57
2018-06-29T08:49:38.284Z,2.93
2018-06-29T08:52:06.254Z,2.27
2018-06-29T08:54:34.161Z,2.50
2018-06-29T08:57:02.109Z,2.60
2018-06-29T08:59:30.018Z,2.53
2018-06-29T09:01:57.966Z,2.57
2018-06-29T09:04:25.776Z,2.53
2018-06-29T09:06:53.666Z,2.23
2018-06-29T09:09:21.537Z,2.53
2018-06-29T09:11:49.417Z,2.60
2018-06-29T09:14:18.392Z,2.50
2018-06-29T09:16:52.118Z,2.37
2018-06-29T09:19:20.135Z,2.90
2018-06-29T09:21:56.901Z,2.93
2018-06-29T09:24:26.689Z,2.27
2018-06-29T09:26:54.582Z,2.40
2018-06-29T09:29:25.517Z,2.47
2018-06-29T09:31:53.457Z,2.87
2018-06-29T09:34:21.341Z,2.70
2018-06-29T09:36:49.835Z,2.50
2018-06-29T09:39:17.729Z,2.63
2018-06-29T09:41:45.577Z,2.60
2018-06-29T09:44:13.662Z,2.47
2018-06-29T09:46:41.641Z,2.80
2018-06-29T09:49:09.576Z,2.47
2018-06-29T09:51:37.469Z,2.60
2018-06-29T09:54:05.624Z,2.87
2018-06-29T09:56:33.544Z,2.90
2018-06-29T09:59:01.602Z,2.57
2018-06-29T10:01:29.595Z,2.43
2018-06-29T10:03:57.415Z,2.40
2018-06-29T10:06:25.317Z,2.60
2018-06-29T10:08:53.116Z,2.73
2018-06-29T10:11:21.036Z,2.60
2018-06-29T10:13:48.936Z,2.60
2018-06-29T10:16:16.807Z,2.53
2018-06-29T10:18:44.629Z,2.60
2018-06-29T10:21:12.549Z,2.30
2018-06-29T10:23:40.421Z,2.63
2018-06-29T10:26:08.302Z,2.87
2018-06-29T10:28:36.242Z,2.30
2018-06-29T10:31:04.093Z,2.63
2018-06-29T10:33:31.950Z,2.20
2018-06-29T10:35:59.900Z,2.57
2018-06-29T10:38:27.757Z,2.30
2018-06-29T10:40:55.681Z,2.77
2018-06-29T10:43:23.541Z,2.20
2018-06-29T10:45:51.341Z,2.20
2018-06-29T10:48:19.241Z,2.37
2018-06-29T10:50:47.115Z,3.00
2018-06-29T10:53:15.042Z,2.40
2018-06-29T10:55:42.983Z,2.20
2018-06-29T10:58:12.909Z,2.25
2018-06-29T11:00:40.928Z,2.40
2018-06-29T11:03:08.749Z,2.10
2018-06-29T11:05:36.680Z,2.67
2018-06-29T11:08:04.749Z,2.40
2018-06-29T11:10:32.641Z,3.05
2018-06-29T11:13:01.686Z,2.33
2018-06-29T11:15:33.579Z,2.62
2018-06-29T11:18:01.472Z,2.35
2018-06-29T11:20:29.364Z,2.60
2018-06-29T11:22:57.201Z,2.30
2018-06-29T11:25:25.075Z,2.45
2018-06-29T11:27:52.901Z,2.40
2018-06-29T11:30:20.776Z,2.40
2018-06-29T11:32:49.040Z,2.58
2018-06-29T11:35:16.959Z,2.58
2018-06-29T11:37:44.789Z,2.12
2018-06-29T11:40:12.747Z,2.50
2018-06-29T11:42:40.706Z,2.05
2018-06-29T11:45:08.599Z,2.55
2018-06-29T11:47:36.684Z,2.98
2018-06-29T11:50:04.972Z,2.35
2018-06-29T11:52:32.883Z,2.17
2018-06-29T11:55:00.784Z,2.30
2018-06-29T11:57:28.709Z,2.70
2018-06-29T11:59:56.601Z,1.90
2018-06-29T12:02:24.400Z,2.40
2018-06-29T12:04:52.301Z,2.20
2018-06-29T12:07:20.263Z,2.20
2018-06-29T12:09:48.065Z,2.60
2018-06-29T12:12:15.989Z,2.45
2018-06-29T12:14:43.948Z,2.42
2018-06-29T12:17:14.592Z,2.17
2018-06-29T12:19:42.703Z,2.42
2018-06-29T12:22:10.543Z,2.50
2018-06-29T12:24:38.468Z,2.40
2018-06-29T12:27:06.341Z,2.40
2018-06-29T12:29:34.181Z,2.30
2018-06-29T12:32:02.041Z,2.22
2018-06-29T12:34:29.996Z,2.27
2018-06-29T12:36:57.968Z,2.33
2018-06-29T12:39:25.817Z,2.40
2018-06-29T12:41:53.665Z,2.47
2018-06-29T12:44:21.549Z,2.05
2018-06-29T12:46:49.374Z,2.12
2018-06-29T12:49:17.277Z,2.50
2018-06-29T12:51:45.195Z,2.10
2018-06-29T12:54:13.141Z,2.12
2018-06-29T12:56:41.069Z,2.27
2018-06-29T12:59:09.873Z,2.20
2018-06-29T13:01:37.853Z,2.58
2018-06-29T13:04:05.804Z,2.20
2018-06-29T13:06:33.800Z,2.30
2018-06-29T13:09:01.706Z,2.42
2018-06-29T13:11:29.508Z,2.27
2018-06-29T13:13:57.457Z,2.25
2018-06-29T13:16:25.277Z,2.40
2018-06-29T13:18:53.164Z,2.58
2018-06-29T13:21:20.989Z,2.30
2018-06-29T13:23:48.890Z,2.33
2018-06-29T13:26:16.725Z,2.27
2018-06-29T13:28:44.517Z,2.10
2018-06-29T13:31:12.388Z,2.67
2018-06-29T13:33:40.283Z,2.30
2018-06-29T13:36:08.171Z,2.70
2018-06-29T13:38:36.065Z,2.17
2018-06-29T13:41:04.037Z,2.65
2018-06-29T13:43:31.936Z,2.20
2018-06-29T13:45:59.824Z,2.25
2018-06-29T13:48:27.632Z,2.40
2018-06-29T13:50:55.521Z,2.40
2018-06-29T13:53:23.473Z,2.10
2018-06-29T13:55:51.349Z,1.90
2018-06-29T13:58:19.215Z,2.37
2018-06-29T14:00:48.222Z,2.22
2018-06-29T14:03:16.129Z,2.40
2018-06-29T14:05:47.585Z,2.40
2018-06-29T14:08:18.563Z,2.42
2018-06-29T14:10:46.596Z,2.00
2018-06-29T14:13:14.411Z,2.00
2018-06-29T14:15:42.451Z,2.27
2018-06-29T14:18:10.341Z,2.20
2018-06-29T14:20:38.272Z,2.13
2018-06-29T14:23:06.272Z,2.30
2018-06-29T14:25:34.193Z,2.27
2018-06-29T14:28:02.090Z,2.13
2018-06-29T14:30:29.962Z,2.17
2018-06-29T14:32:57.845Z,2.47
2018-06-29T14:35:25.689Z,2.50
2018-06-29T14:37:53.985Z,2.33
2018-06-29T14:40:21.869Z,2.20
2018-06-29T14:42:49.789Z,2.37
2018-06-29T14:45:17.718Z,2.07
2018-06-29T14:47:45.597Z,1.90
2018-06-29T14:50:13.488Z,2.40
2018-06-29T14:52:41.324Z,2.47
2018-06-29T14:55:09.272Z,2.20
2018-06-29T14:57:37.230Z,1.80
2018-06-29T15:00:07.892Z,2.23
2018-06-29T15:02:35.769Z,2.10
2018-06-29T15:05:03.726Z,2.00
2018-06-29T15:07:31.617Z,2.33
2018-06-29T15:09:59.505Z,1.97
2018-06-29T15:12:27.393Z,2.40
2018-06-29T15:14:55.277Z,2.30
2018-06-29T15:17:23.140Z,2.50
2018-06-29T15:19:50.971Z,2.50
2018-06-29T15:22:18.921Z,2.20
2018-06-29T15:24:46.781Z,2.00
2018-06-29T15:27:14.693Z,2.23
2018-06-29T15:29:42.709Z,2.10
2018-06-29T15:32:10.569Z,1.60
2018-06-29T15:34:38.653Z,2.27
2018-06-29T15:37:06.698Z,2.10
2018-06-29T15:39:34.585Z,2.20
2018-06-29T15:42:03.819Z,2.30
2018-06-29T15:44:33.202Z,2.00
2018-06-29T15:47:04.699Z,2.47
2018-06-29T15:49:38.526Z,2.33
2018-06-29T15:52:06.470Z,2.43
2018-06-29T15:54:35.773Z,2.43
2018-06-29T15:57:03.688Z,2.20
2018-06-29T15:59:31.548Z,2.27
2018-06-29T16:01:59.618Z,1.93
2018-06-29T16:04:27.556Z,2.33
2018-06-29T16:06:55.779Z,2.10
2018-06-29T16:09:23.656Z,2.10
2018-06-29T16:11:51.874Z,1.90
2018-06-29T16:14:19.705Z,1.97
2018-06-29T16:16:47.601Z,2.07
2018-06-29T16:19:15.581Z,1.80
2018-06-29T16:21:43.502Z,2.07
2018-06-29T16:24:11.555Z,1.87
2018-06-29T16:26:39.585Z,1.97
2018-06-29T16:29:07.490Z,2.27
2018-06-29T16:31:35.390Z,1.90
2018-06-29T16:34:03.361Z,2.13
2018-06-29T16:36:31.321Z,2.10
2018-06-29T16:38:59.493Z,1.87
2018-06-29T16:41:27.745Z,1.90
2018-06-29T16:43:55.699Z,2.00
2018-06-29T16:46:23.627Z,1.97
2018-06-29T16:48:51.586Z,1.93
2018-06-29T16:51:20.109Z,1.80
2018-06-29T16:53:48.033Z,2.17
2018-06-29T16:56:15.933Z,1.70
2018-06-29T16:58:43.825Z,2.03
2018-06-29T17:01:11.853Z,2.00
2018-06-29T17:03:39.908Z,1.80
2018-06-29T17:06:07.847Z,1.83
2018-06-29T17:08:35.838Z,2.00
2018-06-29T17:11:03.837Z,1.90
2018-06-29T17:13:32.228Z,1.67
2018-06-29T17:16:00.124Z,1.83
2018-06-29T17:18:28.066Z,1.70
2018-06-29T17:20:55.975Z,1.93
2018-06-29T17:23:24.017Z,1.80
2018-06-29T17:25:51.929Z,1.63
2018-06-29T17:28:19.847Z,2.10
2018-06-29T17:30:47.760Z,1.93
2018-06-29T17:33:15.649Z,1.87
2018-06-29T17:35:43.549Z,1.63
2018-06-29T17:38:11.805Z,1.73
2018-06-29T17:40:39.734Z,1.73
2018-06-29T17:43:07.561Z,1.77
2018-06-29T17:45:35.466Z,1.90
2018-06-29T17:48:03.378Z,1.93
2018-06-29T17:50:31.325Z,1.60
2018-06-29T17:52:59.190Z,1.90
2018-06-29T17:55:27.138Z,2.07
2018-06-29T17:57:54.982Z,1.90
2018-06-29T18:00:22.876Z,1.80
2018-06-29T18:02:50.752Z,1.90
2018-06-29T18:05:18.724Z,1.73
2018-06-29T18:07:46.666Z,2.10
2018-06-29T18:10:14.652Z,1.70
2018-06-29T18:12:42.760Z,1.70
2018-06-29T18:15:11.875Z,1.80
2018-06-29T18:17:40.824Z,1.63
2018-06-29T18:20:09.782Z,2.20
2018-06-29T18:22:37.773Z,1.90
2018-06-29T18:25:06.698Z,1.80
2018-06-29T18:27:34.654Z,1.80
2018-06-29T18:30:03.126Z,2.00
2018-06-29T18:32:31.003Z,1.83
2018-06-29T18:35:02.679Z,1.97
2018-06-29T18:37:30.648Z,2.17
2018-06-29T18:39:58.629Z,2.10
2018-06-29T18:42:26.558Z,2.27
2018-06-29T18:44:54.548Z,1.77
2018-06-29T18:47:22.382Z,2.10
2018-06-29T18:49:50.609Z,2.10
2018-06-29T18:52:18.407Z,1.80
2018-06-29T18:54:46.272Z,1.87
2018-06-29T18:57:14.193Z,2.17
2018-06-29T18:59:42.141Z,2.23
2018-06-29T19:02:11.110Z,1.87
2018-06-29T19:04:38.944Z,2.33
2018-06-29T19:07:07.077Z,2.17
2018-06-29T19:09:35.060Z,1.97
2018-06-29T19:12:11.053Z,2.17
2018-06-29T19:14:38.977Z,2.37
2018-06-29T19:17:08.109Z,2.00
2018-06-29T19:19:45.917Z,2.40
2018-06-29T19:22:14.197Z,2.20
2018-06-29T19:24:42.093Z,2.17
2018-06-29T19:27:09.950Z,2.23
2018-06-29T19:29:37.876Z,2.30
2018-06-29T19:32:05.757Z,2.10
2018-06-29T19:34:33.647Z,2.60
2018-06-29T19:37:01.572Z,2.30
2018-06-29T19:39:29.566Z,2.33
2018-06-29T19:41:57.345Z,2.33
2018-06-29T19:44:25.306Z,2.30
2018-06-29T19:46:53.224Z,2.40
2018-06-29T19:49:21.221Z,2.30
2018-06-29T19:51:49.105Z,2.60
2018-06-29T19:54:17.081Z,2.30
2018-06-29T19:56:44.984Z,2.63
2018-06-29T19:59:12.889Z,2.50
2018-06-29T20:01:40.833Z,2.53
2018-06-29T20:04:08.773Z,2.70
2018-06-29T20:06:36.577Z,2.50
2018-06-29T20:09:08.796Z,2.40
2018-06-29T20:11:36.854Z,2.17
2018-06-29T20:14:04.774Z,2.30
2018-06-29T20:16:32.668Z,2.53
2018-06-29T20:19:04.533Z,2.60
2018-06-29T20:21:32.505Z,2.40
2018-06-29T20:24:00.453Z,2.40
2018-06-29T20:26:28.468Z,2.20
2018-06-29T20:28:56.433Z,2.10
2018-06-29T20:31:24.387Z,2.23
2018-06-29T20:33:52.325Z,2.37
2018-06-29T20:36:20.190Z,2.33
2018-06-29T20:38:48.147Z,2.50
2018-06-29T20:41:16.084Z,2.30
2018-06-29T20:43:44.037Z,2.50
2018-06-29T20:46:12.009Z,2.40
2018-06-29T20:48:39.854Z,2.57
2018-06-29T20:51:07.753Z,2.30
2018-06-29T20:53:35.729Z,2.30
2018-06-29T20:56:03.681Z,2.47
2018-06-29T20:58:31.547Z,2.37
2018-06-29T21:00:59.423Z,2.10
2018-06-29T21:03:27.389Z,2.67
2018-06-29T21:05:55.357Z,2.40
2018-06-29T21:08:23.300Z,2.20
2018-06-29T21:10:51.296Z,2.50
2018-06-29T21:13:19.185Z,2.10
2018-06-29T21:15:47.197Z,2.10
2018-06-29T21:18:15.069Z,2.13
2018-06-29T21:20:42.982Z,2.13
2018-06-29T21:23:10.873Z,2.70
2018-06-29T21:25:38.741Z,2.27
2018-06-29T21:28:06.637Z,2.27
2018-06-29T21:30:34.625Z,2.50
2018-06-29T21:33:02.622Z,2.57
2018-06-29T21:35:30.564Z,2.30
2018-06-29T21:37:58.405Z,2.30
2018-06-29T21:40:26.350Z,2.23
2018-06-29T21:42:54.228Z,2.50
2018-06-29T21:45:22.169Z,2.33
2018-06-29T21:47:50.036Z,2.27
2018-06-29T21:50:17.974Z,2.23
2018-06-29T21:52:48.931Z,2.10
2018-06-29T21:55:20.027Z,1.97
2018-06-29T21:57:49.807Z,1.93
2018-06-29T22:00:19.314Z,2.30
2018-06-29T22:02:47.260Z,2.00
2018-06-29T22:05:16.363Z,2.07
2018-06-29T22:07:44.637Z,2.30
2018-06-29T22:10:14.642Z,2.20
2018-06-29T22:12:45.683Z,1.97
2018-06-29T22:15:20.879Z,2.47
2018-06-29T22:17:51.004Z,2.40
2018-06-29T22:20:19.092Z,2.47
2018-06-29T22:22:46.971Z,2.53
2018-06-29T22:25:14.874Z,2.30
2018-06-29T22:27:42.753Z,2.17
2018-06-29T22:30:10.682Z,2.20
2018-06-29T22:32:39.352Z,2.37
2018-06-29T22:35:07.351Z,2.33
2018-06-29T22:37:36.933Z,2.60
2018-06-29T22:40:06.718Z,2.40
2018-06-29T22:42:35.929Z,2.20
2018-06-29T22:45:06.747Z,2.23
2018-06-29T22:47:34.757Z,2.40
2018-06-29T22:50:02.715Z,2.10
2018-06-29T22:52:30.629Z,2.30
2018-06-29T22:54:58.489Z,2.17
2018-06-29T22:57:26.427Z,2.10
2018-06-29T22:59:54.360Z,2.40
2018-06-29T23:02:22.237Z,2.67
2018-06-29T23:04:50.152Z,2.43
2018-06-29T23:07:18.018Z,2.10
2018-06-29T23:09:45.920Z,1.90
2018-06-29T23:12:13.854Z,2.07
2018-06-29T23:14:46.276Z,2.37
2018-06-29T23:17:14.193Z,2.30
2018-06-29T23:19:42.043Z,2.10
2018-06-29T23:22:10.445Z,1.93
2018-06-29T23:24:40.782Z,1.90
2018-06-29T23:27:08.641Z,1.90
2018-06-29T23:29:36.576Z,2.10
2018-06-29T23:32:04.432Z,2.03
2018-06-29T23:34:32.282Z,2.00
2018-06-29T23:37:00.202Z,2.10
2018-06-29T23:39:28.125Z,2.23
2018-06-29T23:41:56.070Z,2.10
2018-06-29T23:44:29.465Z,2.10
2018-06-29T23:46:57.679Z,2.47
2018-06-29T23:49:25.597Z,2.00
2018-06-29T23:51:53.604Z,2.27
2018-06-29T23:54:21.520Z,1.90
2018-06-29T23:56:49.459Z,1.83
2018-06-29T23:59:17.357Z,2.23
